sensor_id;sensor_type;location;lat;lon;timestamp;pressure;altitude;pressure_sealevel;temperature;humidity
16431;BME280;8325;49.284;7.238;2023-06-05T04:03:15;98838.72;;;12.80;56.13
16431;BME280;8325;49.284;7.238;2023-06-05T04:07:27;98844.78;;;12.95;56.02
16431;BME280;8325;49.284;7.238;2023-06-05T04:11:43;98841.13;;;13.11;54.83
16431;BME280;8325;49.284;7.238;2023-06-05T04:15:55;98842.59;;;13.13;54.31
16431;BME280;8325;49.284;7.238;2023-06-05T04:20:10;98842.50;;;13.22;54.32
16431;BME280;8325;49.284;7.238;2023-06-05T04:24:26;98848.66;;;13.29;53.58
16431;BME280;8325;49.284;7.238;2023-06-05T04:28:39;98836.63;;;13.34;53.54
16431;BME280;8325;49.284;7.238;2023-06-05T04:32:52;98843.81;;;13.47;53.53
16431;BME280;8325;49.284;7.238;2023-06-05T04:37:07;98844.03;;;13.46;52.17
16431;BME280;8325;49.284;7.238;2023-06-05T04:41:19;98836.53;;;13.64;51.26
16431;BME280;8325;49.284;7.238;2023-06-05T04:45:34;98841.72;;;13.79;50.04
16431;BME280;8325;49.284;7.238;2023-06-05T04:49:46;98845.66;;;13.90;49.96
16431;BME280;8325;49.284;7.238;2023-06-05T04:54:01;98845.28;;;13.93;49.80
16431;BME280;8325;49.284;7.238;2023-06-05T04:58:13;98842.72;;;13.99;49.11
16431;BME280;8325;49.284;7.238;2023-06-05T05:02:26;98843.41;;;14.08;49.19
16431;BME280;8325;49.284;7.238;2023-06-05T05:06:38;98841.84;;;14.14;49.17
16431;BME280;8325;49.284;7.238;2023-06-05T05:10:49;98827.94;;;14.20;48.98
16431;BME280;8325;49.284;7.238;2023-06-05T05:15:02;98837.25;;;15.95;44.56
16431;BME280;8325;49.284;7.238;2023-06-05T05:19:15;98810.53;;;18.79;38.96
16431;BME280;8325;49.284;7.238;2023-06-05T05:23:27;98819.03;;;21.48;33.81
16431;BME280;8325;49.284;7.238;2023-06-05T05:27:39;98814.22;;;22.08;32.31
16431;BME280;8325;49.284;7.238;2023-06-05T05:31:51;98813.38;;;23.18;30.52
16431;BME280;8325;49.284;7.238;2023-06-05T05:36:03;98809.25;;;23.33;29.74
16431;BME280;8325;49.284;7.238;2023-06-05T05:40:15;98809.63;;;23.19;30.26
16431;BME280;8325;49.284;7.238;2023-06-05T05:44:27;98813.84;;;24.71;28.69
16431;BME280;8325;49.284;7.238;2023-06-05T05:48:38;98816.81;;;24.00;29.09
16431;BME280;8325;49.284;7.238;2023-06-05T05:52:50;98812.75;;;25.25;27.68
16431;BME280;8325;49.284;7.238;2023-06-05T05:57:04;98817.00;;;25.21;28.36
16431;BME280;8325;49.284;7.238;2023-06-05T06:01:16;98819.16;;;25.19;27.85
16431;BME280;8325;49.284;7.238;2023-06-05T06:05:27;98817.13;;;26.49;26.59
16431;BME280;8325;49.284;7.238;2023-06-05T06:09:41;98822.69;;;26.47;26.35
16431;BME280;8325;49.284;7.238;2023-06-05T06:13:53;98819.25;;;25.80;26.93
16431;BME280;8325;49.284;7.238;2023-06-05T06:18:05;98832.41;;;24.98;27.61
16431;BME280;8325;49.284;7.238;2023-06-05T06:22:17;98831.59;;;24.45;28.70
16431;BME280;8325;49.284;7.238;2023-06-05T06:26:29;98835.94;;;24.62;28.33
16431;BME280;8325;49.284;7.238;2023-06-05T06:30:42;98841.84;;;23.67;29.80
16431;BME280;8325;49.284;7.238;2023-06-05T06:34:55;98836.72;;;23.60;29.94
16431;BME280;8325;49.284;7.238;2023-06-05T06:39:07;98837.28;;;23.13;31.46
16431;BME280;8325;49.284;7.238;2023-06-05T06:43:21;98842.91;;;22.22;32.62
16431;BME280;8325;49.284;7.238;2023-06-05T06:47:40;98839.84;;;22.31;32.74
16431;BME280;8325;49.284;7.238;2023-06-05T06:51:56;98841.03;;;21.32;33.85
16431;BME280;8325;49.284;7.238;2023-06-05T06:56:07;98839.72;;;21.06;34.95
16431;BME280;8325;49.284;7.238;2023-06-05T07:00:20;98835.13;;;20.89;35.17
16431;BME280;8325;49.284;7.238;2023-06-05T07:04:31;98846.66;;;21.47;34.52
16431;BME280;8325;49.284;7.238;2023-06-05T07:08:43;98858.00;;;20.43;35.87
16431;BME280;8325;49.284;7.238;2023-06-05T07:12:56;98852.22;;;20.46;36.40
16431;BME280;8325;49.284;7.238;2023-06-05T07:17:07;98852.56;;;20.50;36.46
16431;BME280;8325;49.284;7.238;2023-06-05T07:21:19;98842.47;;;21.11;35.10
16431;BME280;8325;49.284;7.238;2023-06-05T07:25:31;98842.38;;;21.06;34.53
16431;BME280;8325;49.284;7.238;2023-06-05T07:29:45;98845.28;;;20.92;34.52
16431;BME280;8325;49.284;7.238;2023-06-05T07:33:59;98838.63;;;20.78;35.53
16431;BME280;8325;49.284;7.238;2023-06-05T07:38:11;98843.00;;;20.49;35.94
16431;BME280;8325;49.284;7.238;2023-06-05T07:42:23;98834.81;;;20.62;35.90
16431;BME280;8325;49.284;7.238;2023-06-05T07:46:35;98850.81;;;21.03;35.72
16431;BME280;8325;49.284;7.238;2023-06-05T07:50:47;98840.59;;;20.36;37.09
16431;BME280;8325;49.284;7.238;2023-06-05T07:54:58;98844.16;;;20.65;37.18
16431;BME280;8325;49.284;7.238;2023-06-05T07:59:10;98841.06;;;21.20;36.95
16431;BME280;8325;49.284;7.238;2023-06-05T08:03:25;98839.50;;;20.96;36.57
16431;BME280;8325;49.284;7.238;2023-06-05T08:07:37;98836.22;;;21.17;37.46
16431;BME280;8325;49.284;7.238;2023-06-05T08:11:49;98842.94;;;21.08;36.59
16431;BME280;8325;49.284;7.238;2023-06-05T08:16:00;98843.06;;;21.13;36.94
16431;BME280;8325;49.284;7.238;2023-06-05T08:20:12;98836.69;;;21.14;37.18
16431;BME280;8325;49.284;7.238;2023-06-05T08:24:24;98827.75;;;21.32;37.70
16431;BME280;8325;49.284;7.238;2023-06-05T08:28:42;98829.94;;;21.35;37.29
16431;BME280;8325;49.284;7.238;2023-06-05T08:32:54;98828.75;;;21.43;37.62
16431;BME280;8325;49.284;7.238;2023-06-05T08:37:05;98825.25;;;21.54;38.17
16431;BME280;8325;49.284;7.238;2023-06-05T08:41:17;98832.19;;;21.55;37.83
16431;BME280;8325;49.284;7.238;2023-06-05T08:45:32;98826.53;;;21.51;37.89
16431;BME280;8325;49.284;7.238;2023-06-05T08:49:44;98832.97;;;21.27;37.47
16431;BME280;8325;49.284;7.238;2023-06-05T08:54:04;98819.28;;;21.47;38.16
16431;BME280;8325;49.284;7.238;2023-06-05T08:58:24;98824.97;;;21.67;37.71
16431;BME280;8325;49.284;7.238;2023-06-05T09:02:38;98819.16;;;21.70;37.89
16431;BME280;8325;49.284;7.238;2023-06-05T09:06:50;98815.00;;;21.74;37.44
16431;BME280;8325;49.284;7.238;2023-06-05T09:11:21;98813.69;;;21.60;37.23
16431;BME280;8325;49.284;7.238;2023-06-05T09:15:34;98811.78;;;21.89;37.37
16431;BME280;8325;49.284;7.238;2023-06-05T09:19:45;98809.69;;;22.08;37.45
16431;BME280;8325;49.284;7.238;2023-06-05T09:24:27;98814.59;;;21.99;36.84
16431;BME280;8325;49.284;7.238;2023-06-05T09:28:53;98800.28;;;22.17;36.44
16431;BME280;8325;49.284;7.238;2023-06-05T09:33:09;98791.97;;;22.31;36.47
16431;BME280;8325;49.284;7.238;2023-06-05T09:37:32;98798.69;;;22.55;35.72
16431;BME280;8325;49.284;7.238;2023-06-05T09:41:45;98797.09;;;22.54;36.65
16431;BME280;8325;49.284;7.238;2023-06-05T09:45:57;98795.81;;;22.79;35.94
16431;BME280;8325;49.284;7.238;2023-06-05T09:50:20;98789.81;;;22.88;35.20
16431;BME280;8325;49.284;7.238;2023-06-05T09:54:32;98780.16;;;23.04;35.87
16431;BME280;8325;49.284;7.238;2023-06-05T09:58:51;98787.72;;;23.12;35.58
16431;BME280;8325;49.284;7.238;2023-06-05T10:03:06;98787.22;;;23.15;33.97
16431;BME280;8325;49.284;7.238;2023-06-05T10:07:19;98789.03;;;23.10;33.66
16431;BME280;8325;49.284;7.238;2023-06-05T10:11:31;98784.88;;;22.97;34.69
16431;BME280;8325;49.284;7.238;2023-06-05T10:15:44;98776.44;;;23.05;34.98
16431;BME280;8325;49.284;7.238;2023-06-05T10:19:57;98780.47;;;23.35;35.41
16431;BME280;8325;49.284;7.238;2023-06-05T10:24:15;98776.97;;;23.56;34.49
16431;BME280;8325;49.284;7.238;2023-06-05T10:28:53;98779.72;;;23.66;34.35
16431;BME280;8325;49.284;7.238;2023-06-05T10:33:07;98778.84;;;23.88;34.50
16431;BME280;8325;49.284;7.238;2023-06-05T10:37:47;98775.78;;;24.06;33.87
16431;BME280;8325;49.284;7.238;2023-06-05T10:42:05;98769.13;;;24.09;32.32
16431;BME280;8325;49.284;7.238;2023-06-05T10:50:38;98760.06;;;24.10;32.41
16431;BME280;8325;49.284;7.238;2023-06-05T10:59:14;98758.97;;;24.43;32.22
16431;BME280;8325;49.284;7.238;2023-06-05T11:08:13;98749.50;;;24.78;31.01
16431;BME280;8325;49.284;7.238;2023-06-05T11:12:26;98744.19;;;24.88;31.41
16431;BME280;8325;49.284;7.238;2023-06-05T11:16:37;98751.34;;;24.77;31.79
16431;BME280;8325;49.284;7.238;2023-06-05T11:20:49;98737.75;;;24.79;30.42
16431;BME280;8325;49.284;7.238;2023-06-05T11:29:25;98742.56;;;24.87;29.53
16431;BME280;8325;49.284;7.238;2023-06-05T11:33:37;98736.97;;;24.94;30.31
16431;BME280;8325;49.284;7.238;2023-06-05T11:38:13;98740.03;;;25.28;29.54
16431;BME280;8325;49.284;7.238;2023-06-05T11:42:24;98727.97;;;25.15;29.82
16431;BME280;8325;49.284;7.238;2023-06-05T11:46:43;98736.31;;;25.34;29.95
16431;BME280;8325;49.284;7.238;2023-06-05T11:50:58;98738.38;;;25.12;30.07
16431;BME280;8325;49.284;7.238;2023-06-05T11:59:26;98732.75;;;25.08;28.87
16431;BME280;8325;49.284;7.238;2023-06-05T12:03:37;98740.16;;;24.75;29.81
16431;BME280;8325;49.284;7.238;2023-06-05T12:07:50;98746.16;;;24.45;30.56
16431;BME280;8325;49.284;7.238;2023-06-05T12:12:06;98738.84;;;24.88;30.52
16431;BME280;8325;49.284;7.238;2023-06-05T12:16:29;98717.75;;;24.92;30.14
16431;BME280;8325;49.284;7.238;2023-06-05T12:20:42;98720.63;;;24.70;30.68
16431;BME280;8325;49.284;7.238;2023-06-05T12:24:55;98722.31;;;24.91;29.91
16431;BME280;8325;49.284;7.238;2023-06-05T12:29:14;98701.00;;;25.27;29.61
16431;BME280;8325;49.284;7.238;2023-06-05T12:33:27;98705.50;;;25.01;29.72
16431;BME280;8325;49.284;7.238;2023-06-05T12:37:39;98711.63;;;24.91;30.04
16431;BME280;8325;49.284;7.238;2023-06-05T12:41:51;98694.06;;;25.26;29.54
16431;BME280;8325;49.284;7.238;2023-06-05T12:46:02;98701.28;;;25.36;29.61
16431;BME280;8325;49.284;7.238;2023-06-05T12:50:14;98694.88;;;25.47;30.71
16431;BME280;8325;49.284;7.238;2023-06-05T12:54:27;98693.78;;;25.89;29.96
16431;BME280;8325;49.284;7.238;2023-06-05T12:58:39;98694.56;;;25.79;28.28
16431;BME280;8325;49.284;7.238;2023-06-05T13:02:51;98684.38;;;26.17;28.36
16431;BME280;8325;49.284;7.238;2023-06-05T13:07:03;98682.63;;;26.47;28.58
16431;BME280;8325;49.284;7.238;2023-06-05T13:11:15;98692.84;;;26.50;27.78
16431;BME280;8325;49.284;7.238;2023-06-05T13:15:27;98683.34;;;25.52;28.51
16431;BME280;8325;49.284;7.238;2023-06-05T13:19:39;98671.31;;;25.90;28.78
16431;BME280;8325;49.284;7.238;2023-06-05T13:23:51;98664.13;;;25.60;28.70
16431;BME280;8325;49.284;7.238;2023-06-05T13:28:03;98662.72;;;26.08;28.73
16431;BME280;8325;49.284;7.238;2023-06-05T13:32:14;98665.66;;;26.07;28.03
16431;BME280;8325;49.284;7.238;2023-06-05T13:36:26;98664.09;;;25.85;28.21
16431;BME280;8325;49.284;7.238;2023-06-05T13:40:38;98665.97;;;25.34;28.42
16431;BME280;8325;49.284;7.238;2023-06-05T13:44:49;98653.94;;;25.92;28.76
16431;BME280;8325;49.284;7.238;2023-06-05T13:49:01;98654.09;;;26.16;27.85
16431;BME280;8325;49.284;7.238;2023-06-05T13:53:13;98652.88;;;25.83;27.30
16431;BME280;8325;49.284;7.238;2023-06-05T13:57:25;98659.81;;;25.74;28.99
16431;BME280;8325;49.284;7.238;2023-06-05T14:01:36;98659.81;;;25.84;27.40
16431;BME280;8325;49.284;7.238;2023-06-05T14:05:52;98647.91;;;26.26;27.81
16431;BME280;8325;49.284;7.238;2023-06-05T14:10:04;98661.81;;;26.33;27.16
16431;BME280;8325;49.284;7.238;2023-06-05T14:14:16;98645.81;;;26.18;26.88
16431;BME280;8325;49.284;7.238;2023-06-05T14:18:27;98654.34;;;26.30;27.55
16431;BME280;8325;49.284;7.238;2023-06-05T14:22:40;98646.31;;;26.25;27.43
16431;BME280;8325;49.284;7.238;2023-06-05T14:26:53;98642.59;;;26.21;27.40
16431;BME280;8325;49.284;7.238;2023-06-05T14:31:04;98638.81;;;26.27;27.44
16431;BME280;8325;49.284;7.238;2023-06-05T14:35:16;98636.78;;;25.99;26.94
16431;BME280;8325;49.284;7.238;2023-06-05T14:39:28;98635.44;;;25.96;27.17
16431;BME280;8325;49.284;7.238;2023-06-05T14:43:39;98638.78;;;26.32;26.76
16431;BME280;8325;49.284;7.238;2023-06-05T14:47:51;98636.09;;;26.37;27.01
16431;BME280;8325;49.284;7.238;2023-06-05T14:52:03;98630.22;;;26.30;26.66
16431;BME280;8325;49.284;7.238;2023-06-05T14:56:16;98642.00;;;26.34;26.97
16431;BME280;8325;49.284;7.238;2023-06-05T15:00:28;98652.50;;;26.10;27.30
16431;BME280;8325;49.284;7.238;2023-06-05T15:04:41;98638.94;;;25.91;27.82
16431;BME280;8325;49.284;7.238;2023-06-05T15:08:53;98624.53;;;25.52;27.55
16431;BME280;8325;49.284;7.238;2023-06-05T15:13:04;98633.06;;;25.74;27.82
16431;BME280;8325;49.284;7.238;2023-06-05T15:17:16;98630.94;;;25.86;27.38
16431;BME280;8325;49.284;7.238;2023-06-05T15:21:28;98633.28;;;25.98;27.39
16431;BME280;8325;49.284;7.238;2023-06-05T15:25:40;98627.03;;;26.23;26.06
16431;BME280;8325;49.284;7.238;2023-06-05T15:29:52;98623.91;;;26.06;26.60
16431;BME280;8325;49.284;7.238;2023-06-05T15:34:03;98621.78;;;25.98;26.70
16431;BME280;8325;49.284;7.238;2023-06-05T15:38:15;98612.09;;;26.12;27.04
16431;BME280;8325;49.284;7.238;2023-06-05T15:42:28;98617.56;;;25.81;26.75
16431;BME280;8325;49.284;7.238;2023-06-05T15:46:40;98614.06;;;25.91;26.94
16431;BME280;8325;49.284;7.238;2023-06-05T15:50:52;98614.34;;;25.89;26.42
16431;BME280;8325;49.284;7.238;2023-06-05T15:55:08;98605.72;;;25.98;26.58
16431;BME280;8325;49.284;7.238;2023-06-05T15:59:20;98608.91;;;26.10;26.72
16431;BME280;8325;49.284;7.238;2023-06-05T16:03:31;98602.81;;;25.94;26.44
16431;BME280;8325;49.284;7.238;2023-06-05T16:07:43;98605.19;;;26.01;26.75
16431;BME280;8325;49.284;7.238;2023-06-05T16:11:54;98600.13;;;25.94;26.72
16431;BME280;8325;49.284;7.238;2023-06-05T16:16:06;98599.00;;;26.10;27.03
16431;BME280;8325;49.284;7.238;2023-06-05T16:20:18;98598.25;;;26.00;27.38
16431;BME280;8325;49.284;7.238;2023-06-05T16:24:29;98601.50;;;25.81;27.64
16431;BME280;8325;49.284;7.238;2023-06-05T16:28:41;98595.13;;;25.62;28.10
16431;BME280;8325;49.284;7.238;2023-06-05T16:32:53;98594.03;;;25.63;27.20
16431;BME280;8325;49.284;7.238;2023-06-05T16:37:05;98601.00;;;25.59;27.72
16431;BME280;8325;49.284;7.238;2023-06-05T16:41:16;98596.22;;;25.40;27.77
16431;BME280;8325;49.284;7.238;2023-06-05T16:45:28;98593.25;;;25.42;27.98
16431;BME280;8325;49.284;7.238;2023-06-05T16:49:40;98598.91;;;25.40;28.10
16431;BME280;8325;49.284;7.238;2023-06-05T16:53:51;98593.00;;;25.38;27.75
16431;BME280;8325;49.284;7.238;2023-06-05T16:58:03;98599.41;;;25.42;27.58
16431;BME280;8325;49.284;7.238;2023-06-05T17:02:14;98604.25;;;25.25;27.78
16431;BME280;8325;49.284;7.238;2023-06-05T17:06:27;98612.78;;;25.27;27.59
16431;BME280;8325;49.284;7.238;2023-06-05T17:10:39;98603.41;;;24.89;27.29
16431;BME280;8325;49.284;7.238;2023-06-05T17:14:51;98605.28;;;24.93;28.07
16431;BME280;8325;49.284;7.238;2023-06-05T17:19:03;98607.41;;;24.96;28.27
16431;BME280;8325;49.284;7.238;2023-06-05T17:23:15;98610.09;;;25.01;28.16
16431;BME280;8325;49.284;7.238;2023-06-05T17:27:26;98602.59;;;24.93;29.02
16431;BME280;8325;49.284;7.238;2023-06-05T17:31:38;98603.16;;;24.95;28.03
16431;BME280;8325;49.284;7.238;2023-06-05T17:35:50;98606.84;;;24.69;27.69
16431;BME280;8325;49.284;7.238;2023-06-05T17:40:01;98614.81;;;24.53;28.14
16431;BME280;8325;49.284;7.238;2023-06-05T17:44:14;98609.53;;;24.64;27.65
16431;BME280;8325;49.284;7.238;2023-06-05T17:48:30;98611.94;;;24.60;28.21
16431;BME280;8325;49.284;7.238;2023-06-05T17:52:42;98610.25;;;24.44;27.87
16431;BME280;8325;49.284;7.238;2023-06-05T17:56:56;98608.31;;;24.29;27.50
16431;BME280;8325;49.284;7.238;2023-06-05T18:01:07;98605.09;;;24.22;27.67
16431;BME280;8325;49.284;7.238;2023-06-05T18:05:20;98613.63;;;24.19;28.06
16431;BME280;8325;49.284;7.238;2023-06-05T18:09:32;98616.25;;;24.08;28.38
16431;BME280;8325;49.284;7.238;2023-06-05T18:13:43;98611.97;;;24.07;28.38
16431;BME280;8325;49.284;7.238;2023-06-05T18:17:55;98611.69;;;23.99;28.47
16431;BME280;8325;49.284;7.238;2023-06-05T18:22:07;98611.88;;;23.87;28.29
16431;BME280;8325;49.284;7.238;2023-06-05T18:26:18;98614.22;;;23.78;28.35
16431;BME280;8325;49.284;7.238;2023-06-05T18:30:31;98611.81;;;23.77;28.90
16431;BME280;8325;49.284;7.238;2023-06-05T18:34:43;98612.47;;;23.57;28.55
16431;BME280;8325;49.284;7.238;2023-06-05T18:38:54;98616.94;;;23.46;29.06
16431;BME280;8325;49.284;7.238;2023-06-05T18:43:06;98607.22;;;23.30;29.61
16431;BME280;8325;49.284;7.238;2023-06-05T18:47:18;98619.44;;;23.26;29.91
16431;BME280;8325;49.284;7.238;2023-06-05T18:51:29;98617.72;;;23.09;31.61
16431;BME280;8325;49.284;7.238;2023-06-05T18:55:41;98615.13;;;22.92;33.15
16431;BME280;8325;49.284;7.238;2023-06-05T18:59:53;98617.09;;;22.75;35.39
16431;BME280;8325;49.284;7.238;2023-06-05T19:04:04;98626.41;;;22.50;35.31
16431;BME280;8325;49.284;7.238;2023-06-05T19:08:16;98622.38;;;22.21;36.27
16431;BME280;8325;49.284;7.238;2023-06-05T19:12:28;98625.00;;;21.99;37.40
16431;BME280;8325;49.284;7.238;2023-06-05T19:16:39;98623.78;;;21.68;37.65
16431;BME280;8325;49.284;7.238;2023-06-05T19:20:51;98621.69;;;21.53;39.58
16431;BME280;8325;49.284;7.238;2023-06-05T19:25:03;98627.72;;;21.31;40.71
16431;BME280;8325;49.284;7.238;2023-06-05T19:29:16;98628.66;;;21.08;41.10
16431;BME280;8325;49.284;7.238;2023-06-05T19:33:29;98634.66;;;20.87;40.53
16431;BME280;8325;49.284;7.238;2023-06-05T19:37:42;98638.69;;;20.61;41.39
16431;BME280;8325;49.284;7.238;2023-06-05T19:41:54;98642.53;;;20.41;42.42
16431;BME280;8325;49.284;7.238;2023-06-05T19:46:05;98645.56;;;20.21;43.31
16431;BME280;8325;49.284;7.238;2023-06-05T19:50:17;98648.25;;;19.98;43.60
16431;BME280;8325;49.284;7.238;2023-06-05T19:54:30;98653.47;;;19.81;44.67
16431;BME280;8325;49.284;7.238;2023-06-05T19:58:42;98662.31;;;19.63;45.28
16431;BME280;8325;49.284;7.238;2023-06-05T20:02:54;98667.72;;;19.57;45.77
16431;BME280;8325;49.284;7.238;2023-06-05T20:07:06;98684.00;;;19.30;46.94
16431;BME280;8325;49.284;7.238;2023-06-05T20:11:17;98679.72;;;19.17;47.83
16431;BME280;8325;49.284;7.238;2023-06-05T20:15:29;98681.41;;;19.00;49.31
16431;BME280;8325;49.284;7.238;2023-06-05T20:19:41;98690.72;;;18.91;49.67
16431;BME280;8325;49.284;7.238;2023-06-05T20:23:55;98696.41;;;18.76;50.35
16431;BME280;8325;49.284;7.238;2023-06-05T20:28:07;98697.41;;;18.56;50.77
16431;BME280;8325;49.284;7.238;2023-06-05T20:32:20;98696.97;;;18.41;51.85
16431;BME280;8325;49.284;7.238;2023-06-05T20:36:32;98702.19;;;18.29;52.17
16431;BME280;8325;49.284;7.238;2023-06-05T20:40:45;98702.31;;;18.16;53.24
16431;BME280;8325;49.284;7.238;2023-06-05T20:45:00;98710.75;;;18.06;53.73
16431;BME280;8325;49.284;7.238;2023-06-05T20:49:12;98705.59;;;17.93;54.11
16431;BME280;8325;49.284;7.238;2023-06-05T20:53:25;98711.41;;;17.77;55.12
16431;BME280;8325;49.284;7.238;2023-06-05T20:57:36;98710.81;;;17.75;55.57
16431;BME280;8325;49.284;7.238;2023-06-05T21:01:48;98710.75;;;17.56;56.40
16431;BME280;8325;49.284;7.238;2023-06-05T21:06:00;98717.81;;;17.37;56.83
16431;BME280;8325;49.284;7.238;2023-06-05T21:10:11;98711.78;;;17.23;57.45
16431;BME280;8325;49.284;7.238;2023-06-05T21:14:23;98718.75;;;17.11;58.23
16431;BME280;8325;49.284;7.238;2023-06-05T21:18:35;98712.75;;;16.97;59.02
16431;BME280;8325;49.284;7.238;2023-06-05T21:22:46;98726.00;;;16.91;58.98
16431;BME280;8325;49.284;7.238;2023-06-05T21:26:58;98718.91;;;16.85;59.58
